Time;durP1;ratioP1;P1;durP2;ratioP2;P2;SDS_P1;SDS_P2;PMS_P1;PMS_P2;Temp;Humidity;BMP_temperature;BMP_pressure;BME280_temperature;BME280_humidity;BME280_pressure;Samples;Min_cycle;Max_cycle;Signal;HPM_P1;HPM_P2
2022/07/25 00:00:23;;;;;;;5.28;3.42;;;23.90;99.90;;;;;;5132232;27;20421;-77
2022/07/25 00:02:49;;;;;;;5.82;3.13;;;23.30;99.90;;;;;;5133213;27;20839;-77
2022/07/25 00:05:14;;;;;;;4.43;3.22;;;23.20;99.90;;;;;;5126986;27;20438;-78
2022/07/25 00:07:40;;;;;;;8.33;3.73;;;23.50;99.90;;;;;;5113084;27;20439;-78
2022/07/25 00:10:07;;;;;;;6.57;3.50;;;23.50;99.90;;;;;;5119225;27;20747;-78
2022/07/25 00:12:32;;;;;;;4.20;3.35;;;23.70;99.90;;;;;;5117595;27;20421;-77
2022/07/25 00:14:58;;;;;;;7.67;3.37;;;23.40;99.90;;;;;;5135528;27;20414;-77
2022/07/25 00:17:24;;;;;;;5.13;3.47;;;23.40;99.90;;;;;;5111450;27;20427;-77
2022/07/25 00:19:49;;;;;;;5.20;3.30;;;23.30;99.90;;;;;;5116674;27;20475;-77
2022/07/25 00:22:15;;;;;;;6.20;3.60;;;23.10;99.90;;;;;;5120158;27;20411;-77
2022/07/25 00:24:41;;;;;;;7.20;3.67;;;23.40;99.90;;;;;;5133552;27;20433;-77
2022/07/25 00:27:07;;;;;;;5.30;3.60;;;23.20;99.90;;;;;;5085688;28;20908;-77
2022/07/25 00:29:32;;;;;;;6.00;3.73;;;23.60;99.90;;;;;;5117502;27;20419;-77
2022/07/25 00:31:58;;;;;;;4.60;3.40;;;23.30;99.90;;;;;;5130701;27;20419;-77
2022/07/25 00:34:24;;;;;;;6.70;3.67;;;23.30;99.90;;;;;;5116547;27;20911;-77
2022/07/25 00:36:49;;;;;;;5.87;4.07;;;23.50;99.90;;;;;;5112725;27;20420;-77
2022/07/25 00:39:15;;;;;;;6.13;3.97;;;23.00;99.90;;;;;;5115662;27;20496;-77
2022/07/25 00:41:43;;;;;;;5.40;4.00;;;23.00;99.90;;;;;;5112803;27;20916;-77
2022/07/25 00:44:09;;;;;;;6.05;3.83;;;23.00;99.90;;;;;;5122506;27;20447;-77
2022/07/25 00:46:38;;;;;;;7.37;4.07;;;22.90;99.90;;;;;;5130330;27;20425;-77
2022/07/25 00:49:03;;;;;;;10.18;4.38;;;22.90;99.90;;;;;;5133571;27;20435;-77
2022/07/25 00:51:29;;;;;;;8.27;4.00;;;22.90;99.90;;;;;;5125428;27;20495;-77
2022/07/25 00:53:56;;;;;;;6.57;4.50;;;22.80;99.90;;;;;;5120217;27;20989;-77
2022/07/25 00:56:23;;;;;;;5.65;4.15;;;22.90;99.90;;;;;;5119062;27;20471;-76
2022/07/25 00:58:49;;;;;;;6.90;4.27;;;22.50;99.90;;;;;;5116164;27;20399;-76
2022/07/25 01:01:14;;;;;;;8.60;4.47;;;22.60;99.90;;;;;;5133508;27;20405;-76
2022/07/25 01:03:40;;;;;;;6.93;4.32;;;22.60;99.90;;;;;;5130905;27;20450;-76
2022/07/25 01:06:07;;;;;;;7.70;4.47;;;22.50;99.90;;;;;;5126343;27;20414;-76
2022/07/25 01:08:33;;;;;;;7.70;4.72;;;22.70;99.90;;;;;;5133442;27;20932;-76
2022/07/25 01:10:59;;;;;;;6.90;4.87;;;22.60;99.90;;;;;;5133977;27;20434;-76
2022/07/25 01:13:24;;;;;;;6.10;4.93;;;22.70;99.90;;;;;;5127922;27;20464;-76
2022/07/25 01:15:50;;;;;;;9.48;5.00;;;22.60;99.90;;;;;;5127828;27;20460;-76
2022/07/25 01:18:16;;;;;;;14.87;5.27;;;22.40;99.90;;;;;;5129630;27;20477;-76
2022/07/25 01:20:42;;;;;;;8.20;4.90;;;;;;;;;;5132053;27;20497;-76
2022/07/25 01:23:08;;;;;;;8.13;5.28;;;22.40;99.90;;;;;;5132376;27;20498;-76
2022/07/25 01:25:34;;;;;;;8.80;5.40;;;22.50;99.90;;;;;;5110215;27;20495;-76
2022/07/25 01:28:00;;;;;;;6.93;5.23;;;22.40;99.90;;;;;;5131075;27;20485;-76
2022/07/25 01:30:25;;;;;;;7.53;5.25;;;22.20;99.90;;;;;;5108857;27;20473;-76
2022/07/25 01:32:51;;;;;;;8.10;5.70;;;22.20;99.90;;;;;;5112395;28;20404;-76
2022/07/25 01:35:17;;;;;;;7.43;5.55;;;22.20;99.90;;;;;;5113892;27;20768;-76
2022/07/25 01:37:43;;;;;;;8.17;6.00;;;22.20;99.90;;;;;;5121224;27;20464;-76
2022/07/25 01:40:09;;;;;;;8.70;6.33;;;;;;;;;;5132643;27;20403;-76
2022/07/25 01:42:35;;;;;;;10.87;6.10;;;22.10;99.90;;;;;;5129868;27;20411;-75
2022/07/25 01:45:03;;;;;;;9.77;6.60;;;22.10;99.90;;;;;;5097432;27;20567;-75
2022/07/25 01:47:28;;;;;;;11.50;6.60;;;22.10;99.90;;;;;;5132373;27;20407;-75
2022/07/25 01:49:54;;;;;;;12.55;7.00;;;22.00;99.90;;;;;;5114604;27;20418;-75
2022/07/25 01:52:20;;;;;;;14.53;7.90;;;22.20;99.90;;;;;;5130533;27;20414;-75
2022/07/25 01:54:45;;;;;;;15.95;7.95;;;22.10;99.90;;;;;;5134251;27;20415;-75
2022/07/25 01:57:11;;;;;;;16.45;7.93;;;21.90;99.90;;;;;;5127946;27;20796;-75
2022/07/25 01:59:38;;;;;;;9.40;7.43;;;21.90;99.90;;;;;;5115919;27;20412;-75
2022/07/25 02:02:05;;;;;;;9.68;6.85;;;22.00;99.90;;;;;;5119696;27;20420;-76
2022/07/25 02:04:31;;;;;;;10.23;7.00;;;22.00;99.90;;;;;;5111666;28;20400;-76
2022/07/25 02:06:56;;;;;;;8.57;7.03;;;22.10;99.90;;;;;;5112967;27;20419;-74
2022/07/25 02:09:22;;;;;;;7.85;7.03;;;21.90;99.90;;;;;;5129607;27;20441;-74
2022/07/25 02:11:48;;;;;;;8.70;6.83;;;21.80;99.90;;;;;;5130653;27;20471;-74
2022/07/25 02:14:13;;;;;;;8.85;6.85;;;21.90;99.90;;;;;;5116727;27;20904;-74
2022/07/25 02:16:39;;;;;;;9.07;7.10;;;21.90;99.90;;;;;;5111460;28;20945;-74
2022/07/25 02:19:05;;;;;;;10.80;7.13;;;22.00;99.90;;;;;;5125494;27;20414;-75
2022/07/25 02:21:30;;;;;;;9.90;6.60;;;21.90;99.90;;;;;;5117610;27;20505;-74
2022/07/25 02:23:56;;;;;;;8.70;6.90;;;21.80;99.90;;;;;;5130913;27;20431;-75
2022/07/25 02:26:22;;;;;;;8.03;6.77;;;;;;;;;;5132287;27;20474;-75
2022/07/25 02:28:49;;;;;;;11.97;7.10;;;22.10;99.90;;;;;;5133321;27;20398;-75
2022/07/25 02:31:15;;;;;;;8.05;6.95;;;22.20;99.90;;;;;;5124039;27;20428;-76
2022/07/25 02:33:40;;;;;;;10.38;6.80;;;22.00;99.90;;;;;;5131471;27;20430;-75
2022/07/25 02:36:07;;;;;;;7.68;6.57;;;22.10;99.90;;;;;;5103161;27;20435;-75
2022/07/25 02:38:33;;;;;;;9.10;6.90;;;;;;;;;;5111341;28;20455;-75
2022/07/25 02:40:59;;;;;;;7.90;6.20;;;22.20;99.90;;;;;;5113989;27;20429;-75
2022/07/25 02:43:25;;;;;;;9.55;6.30;;;;;;;;;;5122859;27;20424;-75
2022/07/25 02:45:50;;;;;;;7.63;6.30;;;21.90;99.90;;;;;;5118125;27;20420;-75
2022/07/25 02:48:16;;;;;;;8.20;6.30;;;21.80;99.90;;;;;;5140560;27;20422;-75
2022/07/25 02:50:42;;;;;;;7.88;6.50;;;;;;;;;;5112448;27;20422;-76
2022/07/25 02:53:08;;;;;;;7.03;5.88;;;21.60;99.90;;;;;;5130368;27;20446;-75
2022/07/25 02:55:34;;;;;;;9.00;6.20;;;22.20;99.90;;;;;;5121872;27;20496;-75
2022/07/25 02:57:59;;;;;;;7.00;5.97;;;21.80;99.90;;;;;;5121640;27;20767;-75
2022/07/25 03:00:26;;;;;;;7.30;6.38;;;21.60;99.90;;;;;;5131392;27;20398;-75
2022/07/25 03:02:51;;;;;;;8.52;6.30;;;21.70;99.90;;;;;;5104897;27;20457;-75
2022/07/25 03:05:17;;;;;;;8.63;6.50;;;22.00;99.90;;;;;;5120219;27;20495;-75
2022/07/25 03:07:44;;;;;;;9.37;6.53;;;21.80;99.90;;;;;;5120133;27;20414;-75
2022/07/25 03:10:11;;;;;;;7.97;5.95;;;21.90;99.90;;;;;;5131351;28;20402;-75
2022/07/25 03:12:38;;;;;;;8.85;6.28;;;21.80;99.90;;;;;;5129036;28;20414;-76
2022/07/25 03:15:05;;;;;;;7.82;6.53;;;21.70;99.90;;;;;;5129275;28;20501;-76
2022/07/25 03:17:31;;;;;;;7.63;6.43;;;21.80;99.90;;;;;;5125932;27;20420;-75
2022/07/25 03:19:57;;;;;;;9.03;6.50;;;22.00;99.90;;;;;;5110962;27;20481;-76
2022/07/25 03:22:24;;;;;;;9.68;6.65;;;21.70;99.90;;;;;;5126563;27;20607;-76
2022/07/25 03:24:50;;;;;;;9.77;7.30;;;21.70;99.90;;;;;;5112882;27;20497;-76
2022/07/25 03:27:16;;;;;;;11.17;7.57;;;21.60;99.90;;;;;;5097424;27;20475;-76
2022/07/25 03:29:42;;;;;;;9.00;7.60;;;;;;;;;;5130986;28;20402;-76
2022/07/25 03:32:08;;;;;;;12.50;7.83;;;21.70;99.90;;;;;;5112284;27;20451;-76
2022/07/25 03:34:34;;;;;;;12.07;7.63;;;21.90;99.90;;;;;;5113190;27;20448;-76
2022/07/25 03:37:01;;;;;;;14.63;8.27;;;21.30;99.90;;;;;;5114758;28;20426;-76
2022/07/25 03:39:27;;;;;;;10.68;7.90;;;21.40;99.90;;;;;;5129150;27;20914;-76
2022/07/25 03:41:53;;;;;;;11.63;7.63;;;21.60;99.90;;;;;;5133916;27;20394;-75
2022/07/25 03:44:20;;;;;;;12.30;8.40;;;21.20;99.90;;;;;;5124986;27;20489;-75
2022/07/25 03:46:46;;;;;;;11.93;8.90;;;21.30;99.90;;;;;;5133005;27;20762;-75
2022/07/25 03:49:11;;;;;;;12.23;8.20;;;21.30;99.90;;;;;;5102878;27;20432;-75
2022/07/25 03:51:37;;;;;;;15.07;9.05;;;21.30;99.90;;;;;;5114056;27;20416;-75
2022/07/25 03:54:05;;;;;;;11.85;8.65;;;;;;;;;;5097181;27;20432;-75
2022/07/25 03:56:39;;;;;;;11.00;9.50;;;21.30;99.90;;;;;;5127493;27;20463;-76
2022/07/25 03:59:06;;;;;;;12.38;9.60;;;21.50;99.90;;;;;;5134514;27;20412;-75
2022/07/25 04:01:32;;;;;;;17.55;10.10;;;21.10;99.90;;;;;;5114185;27;20467;-75
2022/07/25 04:03:58;;;;;;;13.93;9.68;;;21.60;99.90;;;;;;5114678;27;20828;-75
2022/07/25 04:06:24;;;;;;;11.52;9.98;;;21.20;99.90;;;;;;5114136;27;20419;-76
2022/07/25 04:08:50;;;;;;;12.98;9.98;;;21.20;99.90;;;;;;5116193;27;20751;-76
2022/07/25 04:11:16;;;;;;;12.88;10.10;;;21.30;99.90;;;;;;5136964;27;20406;-75
2022/07/25 04:13:42;;;;;;;14.60;10.48;;;21.30;99.90;;;;;;5131247;27;20430;-75
2022/07/25 04:16:09;;;;;;;11.23;10.10;;;21.20;99.90;;;;;;5134153;27;20482;-75
2022/07/25 04:18:35;;;;;;;15.63;11.00;;;;;;;;;;5130677;27;20442;-76
2022/07/25 04:21:02;;;;;;;14.00;10.52;;;20.90;99.90;;;;;;5109519;27;20430;-76
2022/07/25 04:23:28;;;;;;;12.32;10.55;;;21.20;99.90;;;;;;5129276;27;20416;-76
2022/07/25 04:25:55;;;;;;;12.20;10.60;;;21.10;99.90;;;;;;5134838;27;20501;-75
2022/07/25 04:28:20;;;;;;;12.52;10.55;;;21.00;99.90;;;;;;5132049;27;20922;-76
2022/07/25 04:30:46;;;;;;;14.32;11.45;;;21.20;99.90;;;;;;5121856;27;20427;-76
2022/07/25 04:33:13;;;;;;;13.95;11.07;;;21.20;99.90;;;;;;5082677;28;20438;-76
2022/07/25 04:35:38;;;;;;;13.43;10.95;;;21.10;99.90;;;;;;5096475;28;20396;-77
2022/07/25 04:38:04;;;;;;;16.73;11.38;;;21.10;99.90;;;;;;5116000;27;20428;-77
2022/07/25 04:40:30;;;;;;;13.63;11.40;;;;;;;;;;5118955;27;20427;-77
2022/07/25 04:42:56;;;;;;;14.15;11.52;;;21.00;99.90;;;;;;5113554;27;20418;-77
2022/07/25 04:45:22;;;;;;;13.52;11.23;;;21.10;99.90;;;;;;5116181;27;20390;-77
2022/07/25 04:47:48;;;;;;;13.30;11.45;;;20.90;99.90;;;;;;5100031;28;20481;-77
2022/07/25 04:50:15;;;;;;;13.20;11.80;;;;;;;;;;5118733;27;20416;-77
2022/07/25 04:52:43;;;;;;;14.02;11.55;;;21.10;99.90;;;;;;5131064;27;20457;-77
2022/07/25 04:55:09;;;;;;;12.95;11.63;;;;;;;;;;5128004;27;20481;-77
2022/07/25 04:57:35;;;;;;;14.05;12.57;;;;;;;;;;5112769;28;20419;-77
2022/07/25 05:00:02;;;;;;;13.70;11.50;;;;;;;;;;5127316;27;20455;-76
2022/07/25 05:02:28;;;;;;;16.08;12.10;;;;;;;;;;5118820;27;20971;-77
2022/07/25 05:04:54;;;;;;;15.63;11.95;;;21.00;99.90;;;;;;5130152;27;20427;-76
2022/07/25 05:07:20;;;;;;;15.50;12.00;;;;;;;;;;5089313;27;20418;-76
2022/07/25 05:09:46;;;;;;;16.38;12.43;;;21.40;99.90;;;;;;5112743;28;21050;-76
2022/07/25 05:12:12;;;;;;;15.82;12.40;;;21.30;99.90;;;;;;5131437;27;20418;-76
2022/07/25 05:14:37;;;;;;;13.95;11.82;;;21.50;99.90;;;;;;5116070;27;20426;-76
2022/07/25 05:17:03;;;;;;;15.20;12.17;;;21.50;99.90;;;;;;5130969;27;20414;-76
2022/07/25 05:19:29;;;;;;;13.93;12.50;;;21.40;99.90;;;;;;5101481;27;20415;-77
2022/07/25 05:21:55;;;;;;;16.55;12.93;;;21.40;99.90;;;;;;5113623;27;21146;-77
2022/07/25 05:24:21;;;;;;;13.60;12.13;;;21.70;99.90;;;;;;5132786;27;20403;-77
2022/07/25 05:26:48;;;;;;;14.43;12.93;;;;;;;;;;5132728;27;20447;-77
2022/07/25 05:29:13;;;;;;;14.25;12.77;;;21.50;99.90;;;;;;5129917;27;20415;-77
2022/07/25 05:31:39;;;;;;;14.68;13.02;;;;;;;;;;5132669;27;20432;-77
2022/07/25 05:34:05;;;;;;;16.73;13.45;;;21.30;99.90;;;;;;5116362;27;20424;-77
2022/07/25 05:36:32;;;;;;;15.67;12.67;;;21.60;99.90;;;;;;5121123;27;20475;-78
2022/07/25 05:38:57;;;;;;;14.30;12.65;;;21.70;99.90;;;;;;5118495;27;20413;-78
2022/07/25 05:41:23;;;;;;;14.25;12.77;;;21.80;99.90;;;;;;5153205;27;20393;-78
2022/07/25 05:43:49;;;;;;;15.18;12.98;;;22.10;99.90;;;;;;5138507;27;20414;-78
2022/07/25 05:46:15;;;;;;;17.83;13.20;;;21.90;99.90;;;;;;5119443;27;20423;-76
2022/07/25 05:48:41;;;;;;;17.83;13.25;;;22.10;99.90;;;;;;5128865;27;20420;-77
2022/07/25 05:51:08;;;;;;;14.70;13.15;;;;;;;;;;5123736;27;20425;-76
2022/07/25 05:53:34;;;;;;;14.93;12.95;;;;;;;;;;5130518;27;20425;-77
2022/07/25 05:56:00;;;;;;;14.88;12.85;;;22.30;99.90;;;;;;5113164;27;20431;-77
2022/07/25 05:58:25;;;;;;;14.98;12.75;;;22.40;99.90;;;;;;5097872;27;20896;-77
2022/07/25 06:00:51;;;;;;;14.20;12.63;;;22.30;99.90;;;;;;5095783;27;21081;-77
2022/07/25 06:03:18;;;;;;;17.53;12.80;;;22.40;99.90;;;;;;5119994;27;20450;-77
2022/07/25 06:05:45;;;;;;;15.32;13.52;;;22.20;99.90;;;;;;5112858;28;20601;-77
2022/07/25 06:08:12;;;;;;;15.38;13.77;;;22.30;99.90;;;;;;5129626;27;20422;-77
2022/07/25 06:10:38;;;;;;;15.50;13.50;;;;;;;;;;5132257;27;20410;-77
2022/07/25 06:13:04;;;;;;;14.73;13.10;;;22.50;99.90;;;;;;5124027;27;20415;-77
2022/07/25 06:15:30;;;;;;;15.70;13.20;;;;;;;;;;5126337;27;20898;-77
2022/07/25 06:17:56;;;;;;;16.75;12.90;;;22.60;99.90;;;;;;5127310;27;20423;-77
2022/07/25 06:20:22;;;;;;;15.23;12.90;;;22.70;99.90;;;;;;5114512;27;20415;-76
2022/07/25 06:22:48;;;;;;;14.57;12.47;;;22.60;99.90;;;;;;5129103;27;20457;-77
2022/07/25 06:25:14;;;;;;;19.07;13.20;;;22.70;99.90;;;;;;5094606;28;20443;-77
2022/07/25 06:27:40;;;;;;;14.95;13.23;;;22.80;99.90;;;;;;5126861;27;20498;-77
2022/07/25 06:30:06;;;;;;;15.98;12.40;;;23.30;99.90;;;;;;5114224;27;20497;-77
2022/07/25 06:32:32;;;;;;;16.42;12.73;;;23.50;99.90;;;;;;5134165;27;20433;-77
2022/07/25 06:34:58;;;;;;;13.83;11.53;;;23.10;99.90;;;;;;5128739;27;20422;-77
2022/07/25 06:37:24;;;;;;;17.40;12.43;;;23.10;99.90;;;;;;5133286;27;20411;-76
2022/07/25 06:39:50;;;;;;;15.57;11.60;;;23.30;99.90;;;;;;5130388;27;20819;-77
2022/07/25 06:42:16;;;;;;;16.17;12.27;;;23.20;99.90;;;;;;5126156;27;20449;-77
2022/07/25 06:44:42;;;;;;;13.50;12.02;;;23.20;99.90;;;;;;5122355;27;20476;-77
2022/07/25 06:47:11;;;;;;;13.27;11.80;;;23.30;99.90;;;;;;5093402;28;20411;-77
2022/07/25 06:49:43;;;;;;;13.93;12.10;;;23.40;99.90;;;;;;5098966;27;20979;-77
2022/07/25 06:52:08;;;;;;;16.30;11.75;;;23.50;99.90;;;;;;5121109;27;20780;-76
2022/07/25 06:54:34;;;;;;;14.40;11.93;;;23.60;99.90;;;;;;5118057;27;20426;-77
2022/07/25 06:57:00;;;;;;;14.02;11.73;;;23.80;99.90;;;;;;5125537;27;20533;-77
2022/07/25 06:59:25;;;;;;;15.63;12.10;;;23.90;99.90;;;;;;5093160;28;20412;-77
2022/07/25 07:01:51;;;;;;;15.17;12.23;;;23.90;99.90;;;;;;5113034;27;21021;-77
2022/07/25 07:04:17;;;;;;;14.65;11.55;;;23.90;99.90;;;;;;5117168;27;20418;-77
2022/07/25 07:06:43;;;;;;;15.40;11.30;;;24.10;99.90;;;;;;5108926;28;20574;-77
2022/07/25 07:09:09;;;;;;;14.87;11.83;;;23.90;99.90;;;;;;5130313;27;20901;-77
2022/07/25 07:11:35;;;;;;;14.68;11.95;;;23.80;99.90;;;;;;5125162;27;20418;-77
2022/07/25 07:14:01;;;;;;;13.77;11.33;;;24.00;99.90;;;;;;5131136;28;20422;-77
2022/07/25 07:16:28;;;;;;;13.77;11.85;;;24.00;99.90;;;;;;5102194;28;20416;-77
2022/07/25 07:18:55;;;;;;;15.02;11.40;;;23.90;99.90;;;;;;5110609;28;20407;-76
2022/07/25 07:21:20;;;;;;;15.88;11.55;;;24.20;99.90;;;;;;5136173;27;20907;-76
2022/07/25 07:23:46;;;;;;;13.45;11.73;;;24.10;99.90;;;;;;5148690;27;20391;-77
2022/07/25 07:26:12;;;;;;;13.95;11.48;;;24.10;99.90;;;;;;5098282;28;20428;-77
2022/07/25 07:28:38;;;;;;;13.02;11.05;;;24.20;99.90;;;;;;5129882;27;20429;-77
2022/07/25 07:31:04;;;;;;;14.57;11.97;;;24.40;99.90;;;;;;5094295;27;20430;-79
2022/07/25 07:33:32;;;;;;;14.37;11.33;;;24.60;99.90;;;;;;5115658;27;20428;-78
2022/07/25 07:35:58;;;;;;;13.40;11.27;;;24.40;99.90;;;;;;5112404;27;20418;-79
2022/07/25 07:38:24;;;;;;;15.77;10.67;;;24.50;99.90;;;;;;5120638;27;20434;-78
2022/07/25 07:40:51;;;;;;;13.98;10.63;;;24.50;99.90;;;;;;5124189;28;20474;-79
2022/07/25 07:43:16;;;;;;;11.93;9.80;;;24.90;99.90;;;;;;5120367;27;20799;-79
2022/07/25 07:45:42;;;;;;;12.30;9.40;;;24.80;99.90;;;;;;5117357;27;20475;-78
2022/07/25 07:48:08;;;;;;;11.98;9.07;;;24.80;99.90;;;;;;5116225;28;20757;-79
2022/07/25 07:50:35;;;;;;;11.10;8.45;;;25.00;99.90;;;;;;5113781;27;20461;-79
2022/07/25 07:53:01;;;;;;;11.43;8.50;;;24.80;99.90;;;;;;5102917;27;20428;-79
2022/07/25 07:58:16;;;;;;;10.30;8.30;;;25.30;99.90;;;;;;5102977;28;20420;-79
2022/07/25 08:00:44;;;;;;;11.35;8.68;;;25.40;99.90;;;;;;5117493;27;20503;-78
2022/07/25 08:03:10;;;;;;;13.85;7.63;;;25.30;99.90;;;;;;5130363;28;20422;-78
2022/07/25 08:05:42;;;;;;;11.27;7.70;;;25.40;99.90;;;;;;5116742;27;20402;-78
2022/07/25 08:08:09;;;;;;;9.43;7.30;;;25.50;99.90;;;;;;5128132;27;20909;-78
2022/07/25 08:10:38;;;;;;;10.45;7.55;;;25.70;99.90;;;;;;5112726;28;20496;-78
2022/07/25 08:13:24;;;;;;;8.38;7.35;;;25.80;99.90;;;;;;5126029;27;20410;-79
2022/07/25 08:15:52;;;;;;;8.98;7.00;;;25.70;99.90;;;;;;5107414;28;20496;-79
2022/07/25 08:18:19;;;;;;;10.30;7.13;;;26.00;99.90;;;;;;5117758;27;20423;-79
2022/07/25 08:20:48;;;;;;;5.10;3.20;;;25.80;99.90;;;;;;5130002;27;20414;-78
2022/07/25 08:23:15;;;;;;;4.90;3.00;;;25.70;99.90;;;;;;5125226;27;20440;-78
2022/07/25 08:25:41;;;;;;;4.97;3.35;;;25.40;99.90;;;;;;5106587;27;20417;-78
2022/07/25 08:28:07;;;;;;;5.43;2.90;;;25.10;99.90;;;;;;5120689;27;21065;-78
2022/07/25 08:30:34;;;;;;;3.92;2.50;;;24.90;99.90;;;;;;5121684;27;20416;-78
2022/07/25 08:33:02;;;;;;;4.38;2.80;;;24.90;99.90;;;;;;5117083;27;20543;-77
2022/07/25 08:35:29;;;;;;;8.05;2.50;;;24.60;99.90;;;;;;5102368;27;20436;-78
2022/07/25 08:37:55;;;;;;;6.68;2.20;;;24.40;99.90;;;;;;5119554;27;20487;-77
2022/07/25 08:40:23;;;;;;;4.07;2.42;;;24.50;99.90;;;;;;5124848;27;20550;-76
2022/07/25 08:42:49;;;;;;;4.90;2.50;;;24.30;99.90;;;;;;5124612;27;20418;-77
2022/07/25 08:45:18;;;;;;;3.88;2.20;;;24.10;99.90;;;;;;5109919;27;20457;-75
2022/07/25 08:47:48;;;;;;;4.10;2.20;;;24.20;99.90;;;;;;5125003;27;20422;-75
2022/07/25 08:50:21;;;;;;;4.82;2.30;;;24.30;99.90;;;;;;5117921;27;20431;-75
2022/07/25 08:52:48;;;;;;;4.22;2.33;;;24.40;99.90;;;;;;5119673;27;20427;-75
2022/07/25 08:55:18;;;;;;;3.43;2.20;;;24.10;99.90;;;;;;5096672;27;20416;-75
2022/07/25 08:57:46;;;;;;;4.93;2.47;;;24.10;99.90;;;;;;5118382;27;20408;-75
2022/07/25 09:00:15;;;;;;;4.85;2.60;;;24.30;99.90;;;;;;5135881;27;20423;-75
2022/07/25 09:02:40;;;;;;;3.72;2.42;;;24.40;99.90;;;;;;5119210;27;20422;-75
2022/07/25 09:05:07;;;;;;;4.40;2.38;;;24.40;99.90;;;;;;5127257;27;20430;-76
2022/07/25 09:07:35;;;;;;;4.93;2.30;;;24.40;99.90;;;;;;5126178;27;20898;-76
2022/07/25 09:10:24;;;;;;;6.03;2.58;;;24.40;99.90;;;;;;5128779;27;20421;-75
2022/07/25 09:12:51;;;;;;;4.83;2.57;;;24.40;99.90;;;;;;5122270;27;20459;-76
2022/07/25 09:15:23;;;;;;;4.03;2.50;;;24.30;99.90;;;;;;5113790;27;20942;-77
2022/07/25 09:17:50;;;;;;;4.28;2.50;;;24.50;99.90;;;;;;5116593;27;20423;-75
2022/07/25 09:20:16;;;;;;;5.45;2.38;;;24.50;99.90;;;;;;5119442;27;20415;-76
2022/07/25 09:22:44;;;;;;;4.20;2.25;;;24.50;99.90;;;;;;5120829;27;20410;-76
2022/07/25 09:25:22;;;;;;;4.03;2.23;;;24.60;99.90;;;;;;5119038;27;20431;-76
2022/07/25 09:27:47;;;;;;;3.92;2.33;;;24.70;99.90;;;;;;5109920;27;20422;-76
2022/07/25 09:30:14;;;;;;;5.83;2.47;;;25.00;99.90;;;;;;5132477;27;20405;-77
2022/07/25 09:32:40;;;;;;;6.63;2.38;;;25.00;99.90;;;;;;5132937;27;20406;-78
2022/07/25 09:35:06;;;;;;;3.90;2.20;;;25.00;99.90;;;;;;5103534;28;20424;-77
2022/07/25 09:37:31;;;;;;;4.00;2.28;;;25.10;99.90;;;;;;5120396;27;20428;-78
2022/07/25 09:39:57;;;;;;;3.40;2.10;;;25.20;99.90;;;;;;5105755;27;20553;-78
2022/07/25 09:42:32;;;;;;;6.43;2.25;;;25.20;99.90;;;;;;5099050;27;20415;-78
2022/07/25 09:45:11;;;;;;;4.78;2.20;;;25.20;99.90;;;;;;5127526;27;20888;-78
2022/07/25 09:47:58;;;;;;;4.70;2.03;;;25.30;99.90;;;;;;5106783;28;20424;-78
2022/07/25 09:50:26;;;;;;;3.38;2.10;;;25.40;99.90;;;;;;5103888;27;20422;-78
2022/07/25 09:52:55;;;;;;;3.85;2.10;;;25.30;99.90;;;;;;5126713;27;20409;-78
2022/07/25 09:55:22;;;;;;;5.43;2.08;;;25.40;99.90;;;;;;5118317;27;20504;-78
2022/07/25 09:57:48;;;;;;;3.65;2.00;;;25.40;99.90;;;;;;5107078;27;20416;-78
2022/07/25 10:00:19;;;;;;;3.70;1.90;;;25.20;99.90;;;;;;5130307;27;20416;-78
2022/07/25 10:02:54;;;;;;;4.57;2.20;;;25.30;99.90;;;;;;5109651;27;20424;-78
2022/07/25 10:05:28;;;;;;;4.33;2.07;;;24.90;99.90;;;;;;5103022;27;20420;-78
2022/07/25 10:07:54;;;;;;;4.37;2.07;;;25.00;99.90;;;;;;5113115;27;20771;-78
2022/07/25 10:10:31;;;;;;;4.38;2.03;;;24.80;99.90;;;;;;5105153;27;20414;-78
2022/07/25 10:13:12;;;;;;;4.72;2.25;;;24.80;99.90;;;;;;5116234;27;20400;-78
2022/07/25 10:15:44;;;;;;;7.40;2.30;;;24.90;99.90;;;;;;5101879;27;20449;-78
2022/07/25 10:18:10;;;;;;;4.00;2.25;;;24.80;99.90;;;;;;5111116;27;20486;-78
2022/07/25 10:20:36;;;;;;;3.97;2.03;;;24.70;99.90;;;;;;5114591;27;20412;-78
2022/07/25 10:23:03;;;;;;;5.90;2.53;;;24.60;99.90;;;;;;5119860;27;20421;-77
2022/07/25 10:25:30;;;;;;;5.43;2.70;;;24.60;99.90;;;;;;5132527;27;20419;-77
2022/07/25 10:28:07;;;;;;;6.68;2.50;;;24.10;99.90;;;;;;5127860;27;20447;-77
2022/07/25 10:30:37;;;;;;;8.68;2.75;;;24.10;99.90;;;;;;5124735;27;20925;-77
2022/07/25 10:33:10;;;;;;;6.65;3.05;;;23.20;99.90;;;;;;5134355;27;20457;-77
2022/07/25 10:35:36;;;;;;;5.95;2.72;;;23.30;99.90;;;;;;5135494;27;20474;-76
2022/07/25 10:38:03;;;;;;;5.32;3.08;;;;;;;;;;5112017;28;20477;-76
2022/07/25 10:40:32;;;;;;;7.70;3.25;;;23.20;99.90;;;;;;5126296;27;20406;-77
2022/07/25 10:43:12;;;;;;;5.20;3.03;;;23.40;99.90;;;;;;5124960;27;20552;-77
2022/07/25 10:45:38;;;;;;;6.38;3.30;;;23.80;99.90;;;;;;5115281;27;20465;-77
2022/07/25 10:48:19;;;;;;;8.80;3.67;;;23.90;99.90;;;;;;5110491;27;21021;-77
2022/07/25 10:50:52;;;;;;;9.43;3.40;;;24.60;99.90;;;;;;5131381;27;20913;-77
2022/07/25 10:53:30;;;;;;;7.88;2.97;;;24.60;99.90;;;;;;5121493;27;20800;-77
2022/07/25 10:56:08;;;;;;;9.20;3.30;;;24.50;99.90;;;;;;5151842;27;20425;-77
2022/07/25 10:58:45;;;;;;;7.28;3.08;;;24.10;99.90;;;;;;5106435;27;20776;-77
2022/07/25 11:01:13;;;;;;;7.22;3.13;;;24.10;99.90;;;;;;5132558;27;20414;-77
2022/07/25 11:03:41;;;;;;;7.18;3.00;;;24.30;99.90;;;;;;5114351;27;20432;-78
2022/07/25 11:06:07;;;;;;;7.43;3.10;;;24.20;99.90;;;;;;5122443;27;20427;-77
2022/07/25 11:08:34;;;;;;;6.80;2.83;;;24.20;99.90;;;;;;5128953;27;20766;-76
2022/07/25 11:11:01;;;;;;;7.47;3.27;;;24.20;99.90;;;;;;5132082;27;20440;-77
2022/07/25 11:13:27;;;;;;;9.27;3.33;;;24.40;99.90;;;;;;5131628;27;20433;-75
2022/07/25 11:15:57;;;;;;;8.98;3.42;;;24.30;99.90;;;;;;5132112;27;20415;-77
2022/07/25 11:18:41;;;;;;;8.30;3.10;;;24.30;99.90;;;;;;5130533;27;20403;-74
2022/07/25 11:21:08;;;;;;;7.60;3.30;;;24.40;99.90;;;;;;5119975;27;20406;-75
2022/07/25 11:23:35;;;;;;;6.43;3.30;;;24.40;99.90;;;;;;5113643;27;20487;-74
2022/07/25 11:26:19;;;;;;;7.93;3.10;;;24.40;99.90;;;;;;5131446;27;20536;-75
2022/07/25 11:28:47;;;;;;;6.70;2.78;;;24.70;99.90;;;;;;5117273;27;20423;-75
2022/07/25 11:31:15;;;;;;;9.52;3.08;;;24.90;99.90;;;;;;5126630;27;20422;-75
2022/07/25 11:33:42;;;;;;;7.13;3.30;;;25.10;99.90;;;;;;5130559;28;20506;-75
2022/07/25 11:36:09;;;;;;;7.25;3.10;;;24.90;99.90;;;;;;5124637;27;20445;-75
2022/07/25 11:38:37;;;;;;;6.63;2.80;;;24.80;99.90;;;;;;5118080;27;20414;-75
2022/07/25 11:41:03;;;;;;;9.43;3.20;;;24.80;99.90;;;;;;5137540;27;20431;-76
2022/07/25 11:43:29;;;;;;;10.60;2.88;;;24.70;99.90;;;;;;5125288;27;20418;-75
2022/07/25 11:46:00;;;;;;;8.93;3.00;;;24.30;99.90;;;;;;5120081;27;20420;-75
2022/07/25 11:48:35;;;;;;;7.53;2.80;;;24.00;99.90;;;;;;5129340;27;20413;-76
2022/07/25 11:51:34;;;;;;;7.53;2.88;;;24.20;99.90;;;;;;5101248;27;20447;-76
2022/07/25 11:54:09;;;;;;;8.38;2.60;;;24.30;99.90;;;;;;5117055;27;20435;-76
2022/07/25 11:56:39;;;;;;;5.67;2.43;;;24.30;99.90;;;;;;5114093;27;20412;-76
2022/07/25 11:59:05;;;;;;;6.15;2.40;;;24.20;99.90;;;;;;5128853;27;20911;-77
2022/07/25 12:01:40;;;;;;;6.13;2.30;;;24.80;99.90;;;;;;5116119;27;20947;-76
2022/07/25 12:04:13;;;;;;;4.97;2.08;;;25.00;99.90;;;;;;5114061;27;20476;-76
2022/07/25 12:06:39;;;;;;;7.75;2.22;;;25.30;99.90;;;;;;5113993;27;20603;-77
2022/07/25 12:09:16;;;;;;;6.85;2.38;;;25.30;99.90;;;;;;5123526;27;20505;-76
2022/07/25 12:11:42;;;;;;;6.20;2.50;;;25.20;99.90;;;;;;5113775;27;20424;-76
2022/07/25 12:14:08;;;;;;;8.50;2.50;;;25.20;99.90;;;;;;5113928;27;20935;-76
2022/07/25 12:16:35;;;;;;;6.68;2.50;;;25.00;99.90;;;;;;5125351;27;20573;-75
2022/07/25 12:19:01;;;;;;;7.32;2.47;;;25.10;99.90;;;;;;5116071;27;20440;-76
2022/07/25 12:21:27;;;;;;;6.95;2.53;;;25.50;99.90;;;;;;5131692;27;20586;-76
2022/07/25 12:23:52;;;;;;;4.95;2.25;;;25.70;99.90;;;;;;5117113;27;20415;-76
2022/07/25 12:26:18;;;;;;;4.97;2.10;;;25.70;99.90;;;;;;5116899;27;20412;-76
2022/07/25 12:28:44;;;;;;;4.93;2.03;;;25.70;99.90;;;;;;5124044;27;21009;-77
2022/07/25 12:31:10;;;;;;;6.15;2.15;;;25.70;99.90;;;;;;5118739;27;20456;-77
2022/07/25 12:33:36;;;;;;;8.32;2.47;;;25.60;99.90;;;;;;5113114;27;20911;-78
2022/07/25 12:36:02;;;;;;;8.83;2.40;;;25.50;99.90;;;;;;5081682;28;20899;-76
2022/07/25 12:38:28;;;;;;;7.45;2.55;;;25.20;99.90;;;;;;5122082;27;20505;-76
2022/07/25 12:40:54;;;;;;;6.43;2.10;;;24.60;99.90;;;;;;5105542;27;20489;-76
2022/07/25 12:43:20;;;;;;;6.22;2.50;;;24.80;99.90;;;;;;5120828;27;20502;-76
2022/07/25 12:45:46;;;;;;;7.38;2.80;;;23.60;99.90;;;;;;5129732;27;20995;-76
2022/07/25 12:48:13;;;;;;;7.57;2.90;;;24.90;99.90;;;;;;5112126;27;20493;-76
2022/07/25 12:50:40;;;;;;;7.07;2.20;;;25.00;99.90;;;;;;5123903;27;20415;-77